createdAt,value
2024-01-16T00:00:36.391Z,28.69
2024-01-16T00:01:36.360Z,28.70
2024-01-16T00:02:36.413Z,28.69
2024-01-16T00:03:36.419Z,28.71
2024-01-16T00:04:36.375Z,28.69
2024-01-16T00:05:36.453Z,28.71
2024-01-16T00:06:36.416Z,28.71
2024-01-16T00:07:36.413Z,28.69
2024-01-16T00:08:36.476Z,28.69
2024-01-16T00:09:36.440Z,28.70
2024-01-16T00:10:36.433Z,28.69
2024-01-16T00:11:36.509Z,28.70
2024-01-16T00:12:36.514Z,28.71
2024-01-16T00:13:36.525Z,28.70
2024-01-16T00:14:36.678Z,28.70
2024-01-16T00:15:36.605Z,28.73
2024-01-16T00:16:36.604Z,28.69
2024-01-16T00:17:36.777Z,28.69
2024-01-16T00:18:36.733Z,28.70
2024-01-16T00:19:36.660Z,28.70
2024-01-16T00:20:36.720Z,28.70
2024-01-16T00:21:36.657Z,28.70
2024-01-16T00:22:36.684Z,28.71
2024-01-16T00:23:36.753Z,28.70
2024-01-16T00:24:36.716Z,28.71
2024-01-16T00:25:36.722Z,28.69
2024-01-16T00:26:36.779Z,28.71
2024-01-16T00:27:36.785Z,28.70
2024-01-16T00:28:36.787Z,28.72
2024-01-16T00:29:36.833Z,28.72
2024-01-16T00:30:36.774Z,28.71
2024-01-16T00:31:36.810Z,28.70
2024-01-16T00:32:36.831Z,28.72
2024-01-16T00:33:36.893Z,28.71
2024-01-16T00:34:36.841Z,28.70
2024-01-16T00:35:36.821Z,28.71
2024-01-16T00:36:36.811Z,28.71
2024-01-16T00:37:36.829Z,28.71
2024-01-16T00:38:36.873Z,28.70
2024-01-16T00:39:36.847Z,28.70
2024-01-16T00:40:36.854Z,28.70
2024-01-16T00:41:37.000Z,28.70
2024-01-16T00:42:36.881Z,28.70
2024-01-16T00:43:36.905Z,28.71
2024-01-16T00:44:36.940Z,28.70
2024-01-16T00:45:36.919Z,28.69
2024-01-16T00:46:36.938Z,28.70
2024-01-16T00:47:37.077Z,28.70
2024-01-16T00:48:37.019Z,28.69
2024-01-16T00:49:37.028Z,28.70
2024-01-16T00:50:36.989Z,28.71
2024-01-16T00:51:36.980Z,28.69
2024-01-16T00:52:37.001Z,28.70
2024-01-16T00:53:37.074Z,28.72
2024-01-16T00:54:37.020Z,28.71
2024-01-16T00:55:37.023Z,28.70
2024-01-16T00:56:37.047Z,28.70
2024-01-16T00:57:37.033Z,28.70
2024-01-16T00:58:37.048Z,28.73
2024-01-16T00:59:37.054Z,28.71
2024-01-16T01:00:37.032Z,28.71
2024-01-16T01:01:37.092Z,28.73
2024-01-16T01:02:37.122Z,28.72
2024-01-16T01:03:37.101Z,28.73
2024-01-16T01:04:37.064Z,28.72
2024-01-16T01:05:37.247Z,28.72
2024-01-16T01:06:37.064Z,28.71
2024-01-16T01:07:37.043Z,28.72
2024-01-16T01:08:37.098Z,28.73
2024-01-16T01:09:37.065Z,28.73
2024-01-16T01:10:37.087Z,28.71
2024-01-16T01:11:37.078Z,28.73
2024-01-16T01:12:37.063Z,28.72
2024-01-16T01:13:37.075Z,28.73
2024-01-16T01:14:37.182Z,28.73
2024-01-16T01:15:37.077Z,28.72
2024-01-16T01:16:37.080Z,28.74
2024-01-16T01:17:37.173Z,28.72
2024-01-16T01:18:37.177Z,28.73
2024-01-16T01:19:37.137Z,28.72
2024-01-16T01:20:37.152Z,28.73
2024-01-16T01:21:37.132Z,28.72
2024-01-16T01:22:37.128Z,28.73
2024-01-16T01:23:37.182Z,28.72
2024-01-16T01:24:37.164Z,28.70
2024-01-16T01:25:37.160Z,28.71
2024-01-16T01:26:37.229Z,28.72
2024-01-16T01:27:37.172Z,28.73
2024-01-16T01:28:37.182Z,28.72
2024-01-16T01:29:37.207Z,28.74
2024-01-16T01:30:37.242Z,28.72
2024-01-16T01:31:37.177Z,28.71
2024-01-16T01:32:37.447Z,28.71
2024-01-16T01:33:37.252Z,28.72
2024-01-16T01:34:37.209Z,28.73
2024-01-16T01:35:37.257Z,28.71
2024-01-16T01:36:37.212Z,28.71
2024-01-16T01:37:37.223Z,28.70
2024-01-16T01:38:37.269Z,28.71
2024-01-16T01:39:37.229Z,28.70
2024-01-16T01:40:37.242Z,28.69
2024-01-16T01:41:37.276Z,28.71
2024-01-16T01:42:37.253Z,28.71
2024-01-16T01:43:37.284Z,28.70
2024-01-16T01:44:37.378Z,28.70
2024-01-16T01:45:37.302Z,28.72
2024-01-16T01:46:37.305Z,28.70
2024-01-16T01:47:37.433Z,28.70
2024-01-16T01:48:37.381Z,28.70
2024-01-16T01:49:37.370Z,28.69
2024-01-16T01:50:37.363Z,28.69
2024-01-16T01:51:37.335Z,28.71
2024-01-16T01:52:37.358Z,28.70
2024-01-16T01:53:37.382Z,28.70
2024-01-16T01:54:37.345Z,28.71
2024-01-16T01:55:37.364Z,28.70
2024-01-16T01:56:37.416Z,28.70
2024-01-16T01:57:37.377Z,28.71
2024-01-16T01:58:37.370Z,28.70
2024-01-16T01:59:37.458Z,28.70
2024-01-16T02:00:37.393Z,28.73
2024-01-16T02:01:37.395Z,28.70
2024-01-16T02:02:37.446Z,28.71
2024-01-16T02:03:37.478Z,28.71
2024-01-16T02:04:37.439Z,28.71
2024-01-16T02:05:37.460Z,28.71
2024-01-16T02:06:37.422Z,28.70
2024-01-16T02:07:37.448Z,28.70
2024-01-16T02:08:37.487Z,28.69
2024-01-16T02:09:37.463Z,28.71
2024-01-16T02:10:37.455Z,28.70
2024-01-16T02:11:37.526Z,28.71
2024-01-16T02:12:37.473Z,28.71
2024-01-16T02:13:37.481Z,28.70
2024-01-16T02:14:37.528Z,28.69
2024-01-16T02:15:37.498Z,28.69
2024-01-16T02:16:37.489Z,28.71
2024-01-16T02:17:37.677Z,28.72
2024-01-16T02:18:37.541Z,28.71
2024-01-16T02:19:37.605Z,28.71
2024-01-16T02:20:37.559Z,28.72
2024-01-16T02:21:38.429Z,28.69
2024-01-16T02:22:37.508Z,28.69
2024-01-16T02:23:37.673Z,28.71
2024-01-16T02:24:37.539Z,28.69
2024-01-16T02:25:37.539Z,28.70
2024-01-16T02:26:37.583Z,28.69
2024-01-16T02:27:37.566Z,28.71
2024-01-16T02:28:37.570Z,28.69
2024-01-16T02:29:37.607Z,28.70
2024-01-16T02:30:37.636Z,28.68
2024-01-16T02:31:37.592Z,28.70
2024-01-16T02:32:37.659Z,28.68
2024-01-16T02:33:37.627Z,28.70
2024-01-16T02:34:37.594Z,28.68
2024-01-16T02:35:37.632Z,28.70
2024-01-16T02:36:37.600Z,28.68
2024-01-16T02:37:37.631Z,28.70
2024-01-16T02:38:37.673Z,28.70
2024-01-16T02:39:37.630Z,28.69
2024-01-16T02:40:37.674Z,28.69
2024-01-16T02:41:37.733Z,28.69
2024-01-16T02:42:37.734Z,28.67
2024-01-16T02:43:37.780Z,28.68
2024-01-16T02:44:37.823Z,28.70
2024-01-16T02:45:37.830Z,28.66
2024-01-16T02:46:37.862Z,28.68
2024-01-16T02:47:37.985Z,28.67
2024-01-16T02:48:37.917Z,28.69
2024-01-16T02:49:37.965Z,28.67
2024-01-16T02:50:37.914Z,28.67
2024-01-16T02:51:37.909Z,28.67
2024-01-16T02:52:37.906Z,28.68
2024-01-16T02:53:37.952Z,28.68
2024-01-16T02:54:37.932Z,28.67
2024-01-16T02:55:37.923Z,28.66
2024-01-16T02:56:37.957Z,28.66
2024-01-16T02:57:37.918Z,28.66
2024-01-16T02:58:37.956Z,28.64
2024-01-16T02:59:38.004Z,28.67
2024-01-16T03:00:37.956Z,28.66
2024-01-16T03:01:37.952Z,28.64
2024-01-16T03:02:38.072Z,28.66
2024-01-16T03:03:38.442Z,28.67
2024-01-16T03:04:37.967Z,28.65
2024-01-16T03:05:38.034Z,28.67
2024-01-16T03:06:38.068Z,28.67
2024-01-16T03:07:37.992Z,28.66
2024-01-16T03:08:39.193Z,28.67
2024-01-16T03:09:38.545Z,28.65
2024-01-16T03:10:38.014Z,28.67
2024-01-16T03:11:38.071Z,28.66
2024-01-16T03:12:38.003Z,28.67
2024-01-16T03:13:37.995Z,28.64
2024-01-16T03:14:38.102Z,28.65
2024-01-16T03:15:38.019Z,28.66
2024-01-16T03:16:38.003Z,28.64
2024-01-16T03:17:38.044Z,28.64
2024-01-16T03:18:38.145Z,28.64
2024-01-16T03:19:38.012Z,28.65
2024-01-16T03:20:38.059Z,28.64
2024-01-16T03:21:38.016Z,28.64
2024-01-16T03:22:38.028Z,28.65
2024-01-16T03:23:38.140Z,28.64
2024-01-16T03:24:38.029Z,28.65
2024-01-16T03:25:38.019Z,28.65
2024-01-16T03:26:38.064Z,28.64
2024-01-16T03:27:38.039Z,28.64
2024-01-16T03:28:38.078Z,28.64
2024-01-16T03:29:38.083Z,28.63
2024-01-16T03:30:38.143Z,28.65
2024-01-16T03:31:38.145Z,28.64
2024-01-16T03:32:38.137Z,28.63
2024-01-16T03:33:38.149Z,28.64
2024-01-16T03:34:38.125Z,28.63
2024-01-16T03:35:38.122Z,28.65
2024-01-16T03:36:38.098Z,28.60
2024-01-16T03:37:38.098Z,28.63
2024-01-16T03:38:38.185Z,28.61
2024-01-16T03:39:38.161Z,28.63
2024-01-16T03:40:38.202Z,28.62
2024-01-16T03:41:38.260Z,28.62
2024-01-16T03:42:38.257Z,28.65
2024-01-16T03:43:38.322Z,28.62
2024-01-16T03:44:38.388Z,28.60
2024-01-16T03:45:38.366Z,28.61
2024-01-16T03:46:38.401Z,28.63
2024-01-16T03:47:38.468Z,28.63
2024-01-16T03:48:38.510Z,28.62
2024-01-16T03:49:38.456Z,28.61
2024-01-16T03:50:38.432Z,28.61
2024-01-16T03:51:38.405Z,28.60
2024-01-16T03:52:38.397Z,28.61
2024-01-16T03:53:38.419Z,28.59
2024-01-16T03:54:38.426Z,28.62
2024-01-16T03:55:38.418Z,28.59
2024-01-16T03:56:38.458Z,28.61
2024-01-16T03:57:38.416Z,28.63
2024-01-16T03:58:38.438Z,28.62
2024-01-16T03:59:38.479Z,28.61
2024-01-16T04:00:38.517Z,28.65
2024-01-16T04:01:38.568Z,28.63
2024-01-16T04:02:38.473Z,28.61
2024-01-16T04:03:38.534Z,28.62
2024-01-16T04:04:38.461Z,28.62
2024-01-16T04:05:38.526Z,28.62
2024-01-16T04:06:38.504Z,28.60
2024-01-16T04:07:38.467Z,28.60
2024-01-16T04:08:38.501Z,28.60
2024-01-16T04:09:38.483Z,28.61
2024-01-16T04:10:38.491Z,28.60
2024-01-16T04:11:38.572Z,28.60
2024-01-16T04:12:38.515Z,28.62
2024-01-16T04:13:38.578Z,28.62
2024-01-16T04:14:38.568Z,28.60
2024-01-16T04:15:38.560Z,28.61
2024-01-16T04:16:38.590Z,28.62
2024-01-16T04:17:38.663Z,28.58
2024-01-16T04:18:38.768Z,28.59
2024-01-16T04:19:38.685Z,28.59
2024-01-16T04:20:38.678Z,28.60
2024-01-16T04:21:38.632Z,28.59
2024-01-16T04:22:38.643Z,28.59
2024-01-16T04:23:38.675Z,28.58
2024-01-16T04:24:38.695Z,28.59
2024-01-16T04:25:38.672Z,28.58
2024-01-16T04:26:46.110Z,28.62
2024-01-16T04:27:45.900Z,28.58
2024-01-16T04:28:45.918Z,28.60
2024-01-16T04:29:45.990Z,28.59
2024-01-16T04:30:45.971Z,28.58
2024-01-16T04:31:58.014Z,28.62
2024-01-16T04:32:58.142Z,28.60
2024-01-16T04:33:58.111Z,28.59
2024-01-16T04:34:58.032Z,28.59
2024-01-16T04:35:58.109Z,28.60
2024-01-16T04:36:58.025Z,28.59
2024-01-16T04:37:58.010Z,28.59
2024-01-16T04:39:00.114Z,28.58
2024-01-16T04:39:58.008Z,28.58
2024-01-16T04:40:58.012Z,28.59
2024-01-16T04:41:58.015Z,28.57
2024-01-16T04:42:58.001Z,28.57
2024-01-16T04:43:58.006Z,28.58
2024-01-16T04:44:57.998Z,28.58
2024-01-16T04:45:59.257Z,28.58
2024-01-16T04:46:57.986Z,28.59
2024-01-16T04:47:58.026Z,28.57
2024-01-16T04:48:58.142Z,28.56
2024-01-16T04:49:57.951Z,28.57
2024-01-16T04:50:58.000Z,28.58
2024-01-16T04:51:57.931Z,28.59
2024-01-16T04:52:57.931Z,28.58
2024-01-16T04:53:57.936Z,28.58
2024-01-16T04:54:57.935Z,28.57
2024-01-16T04:55:57.950Z,28.57
2024-01-16T04:56:57.930Z,28.56
2024-01-16T04:57:57.932Z,28.57
2024-01-16T04:58:57.917Z,28.60
2024-01-16T04:59:57.902Z,28.58
2024-01-16T05:00:57.940Z,28.57
2024-01-16T05:01:57.883Z,28.57
2024-01-16T05:02:57.976Z,28.55
2024-01-16T05:03:57.933Z,28.53
2024-01-16T05:04:57.868Z,28.57
2024-01-16T05:05:57.921Z,28.54
2024-01-16T05:06:57.823Z,28.55
2024-01-16T05:07:57.855Z,28.55
2024-01-16T05:08:57.955Z,28.57
2024-01-16T05:09:57.809Z,28.57
2024-01-16T05:10:57.805Z,28.54
2024-01-16T05:11:57.814Z,28.55
2024-01-16T05:12:57.819Z,28.54
2024-01-16T05:13:57.804Z,28.57
2024-01-16T05:14:57.866Z,28.52
2024-01-16T05:15:57.803Z,28.54
2024-01-16T05:16:57.806Z,28.54
2024-01-16T05:17:57.959Z,28.51
2024-01-16T05:18:57.847Z,28.52
2024-01-16T05:19:57.778Z,28.50
2024-01-16T05:21:00.363Z,28.52
2024-01-16T05:21:57.792Z,28.54
2024-01-16T05:22:57.780Z,28.55
2024-01-16T05:23:57.780Z,28.52
2024-01-16T05:24:57.775Z,28.53
2024-01-16T05:25:57.815Z,28.54
2024-01-16T05:26:57.800Z,28.56
2024-01-16T05:27:57.761Z,28.54
2024-01-16T05:28:57.755Z,28.54
2024-01-16T05:29:57.827Z,28.54
2024-01-16T05:30:57.896Z,28.55
2024-01-16T05:31:57.726Z,28.54
2024-01-16T05:32:57.773Z,28.55
2024-01-16T05:33:57.828Z,28.54
2024-01-16T05:34:57.698Z,28.55
2024-01-16T05:35:57.731Z,28.54
2024-01-16T05:36:57.693Z,28.54
2024-01-16T05:37:57.697Z,28.57
2024-01-16T05:38:57.740Z,28.57
2024-01-16T05:39:57.692Z,28.57
2024-01-16T05:40:57.692Z,28.54
2024-01-16T05:41:57.761Z,28.53
2024-01-16T05:42:57.680Z,28.54
2024-01-16T05:43:57.698Z,28.54
2024-01-16T05:44:57.734Z,28.53
2024-01-16T05:45:57.727Z,28.53
2024-01-16T05:46:57.684Z,28.54
2024-01-16T05:47:57.816Z,28.54
2024-01-16T05:48:57.866Z,28.53
2024-01-16T05:49:57.797Z,28.53
2024-01-16T05:50:57.759Z,28.53
2024-01-16T05:51:57.715Z,28.52
2024-01-16T05:52:57.709Z,28.53
2024-01-16T05:53:57.801Z,28.54
2024-01-16T05:54:57.776Z,28.51
2024-01-16T05:55:57.848Z,28.53
2024-01-16T05:56:57.940Z,28.52
2024-01-16T05:57:57.888Z,28.51
2024-01-16T05:58:57.920Z,28.52
2024-01-16T05:59:57.965Z,28.52
2024-01-16T06:00:58.021Z,28.51
2024-01-16T06:01:58.030Z,28.53
2024-01-16T06:02:58.095Z,28.52
2024-01-16T06:03:58.139Z,28.51
2024-01-16T06:04:58.147Z,28.52
2024-01-16T06:05:58.249Z,28.51
2024-01-16T06:06:58.306Z,28.51
2024-01-16T06:07:58.244Z,28.51
2024-01-16T06:08:58.284Z,28.52
2024-01-16T06:09:58.314Z,28.52
2024-01-16T06:10:58.366Z,28.50
2024-01-16T06:11:58.409Z,28.52
2024-01-16T06:12:58.429Z,28.52
2024-01-16T06:13:58.456Z,28.51
2024-01-16T06:14:58.460Z,28.55
2024-01-16T06:15:58.515Z,28.53
2024-01-16T06:16:58.426Z,28.54
2024-01-16T06:17:58.611Z,28.52
2024-01-16T06:18:58.513Z,28.52
2024-01-16T06:19:58.460Z,28.53
2024-01-16T06:20:58.466Z,28.50
2024-01-16T06:21:58.429Z,28.50
2024-01-16T06:22:58.437Z,28.50
2024-01-16T06:23:58.500Z,28.49
2024-01-16T06:24:58.468Z,28.50
2024-01-16T06:25:58.504Z,28.51
2024-01-16T06:26:58.459Z,28.50
2024-01-16T06:27:59.820Z,28.49
2024-01-16T06:28:58.693Z,28.49
2024-01-16T06:29:58.724Z,28.51
2024-01-16T06:30:58.713Z,28.49
2024-01-16T06:31:58.741Z,28.49
2024-01-16T06:32:58.974Z,28.49
2024-01-16T06:33:58.750Z,28.49
2024-01-16T06:34:58.704Z,28.49
2024-01-16T06:35:58.763Z,28.51
2024-01-16T06:36:58.712Z,28.81
2024-01-16T06:37:58.702Z,28.81
2024-01-16T06:38:58.701Z,28.79
2024-01-16T06:39:58.689Z,28.94
2024-01-16T06:40:58.676Z,28.89
2024-01-16T06:41:58.698Z,28.92
2024-01-16T06:42:58.680Z,28.96
2024-01-16T06:43:58.723Z,29.29
2024-01-16T06:44:58.722Z,29.29
2024-01-16T06:45:58.694Z,29.32
2024-01-16T06:46:58.683Z,29.50
2024-01-16T06:47:58.782Z,29.79
2024-01-16T06:48:58.762Z,29.80
2024-01-16T06:49:58.676Z,29.99
2024-01-16T06:50:58.690Z,30.26
2024-01-16T06:51:58.673Z,30.60
2024-01-16T06:52:58.665Z,30.61
2024-01-16T06:53:58.765Z,30.62
2024-01-16T06:54:58.666Z,30.74
2024-01-16T06:55:58.691Z,30.89
2024-01-16T06:56:58.658Z,31.22
2024-01-16T06:57:58.621Z,31.09
2024-01-16T06:58:58.661Z,31.04
2024-01-16T06:59:58.694Z,31.19
2024-01-16T07:00:58.736Z,31.15
2024-01-16T07:01:58.597Z,31.04
2024-01-16T07:02:58.591Z,30.95
2024-01-16T07:03:58.578Z,30.86
2024-01-16T07:05:00.658Z,30.76
2024-01-16T07:05:58.738Z,30.64
2024-01-16T07:06:58.515Z,30.59
2024-01-16T07:07:58.524Z,30.51
2024-01-16T07:08:58.510Z,30.47
2024-01-16T07:09:58.487Z,30.40
2024-01-16T07:10:58.509Z,30.30
2024-01-16T07:11:58.500Z,30.22
2024-01-16T07:12:58.461Z,30.18
2024-01-16T07:13:58.576Z,30.10
2024-01-16T07:14:58.483Z,30.05
2024-01-16T07:15:58.418Z,29.97
2024-01-16T07:16:58.419Z,29.93
2024-01-16T07:17:58.462Z,29.91
2024-01-16T07:18:58.419Z,29.84
2024-01-16T07:19:58.386Z,29.80
2024-01-16T07:20:58.413Z,29.76
2024-01-16T07:21:58.371Z,29.70
2024-01-16T07:22:58.367Z,29.70
2024-01-16T07:23:58.409Z,29.56
2024-01-16T07:24:58.363Z,29.52
2024-01-16T07:25:58.367Z,29.51
2024-01-16T07:26:58.424Z,29.47
2024-01-16T07:27:58.376Z,29.39
2024-01-16T07:28:58.372Z,29.34
2024-01-16T07:29:58.366Z,29.31
2024-01-16T07:30:58.474Z,29.27
2024-01-16T07:31:58.357Z,29.23
2024-01-16T07:32:58.460Z,29.19
2024-01-16T07:33:58.408Z,29.15
2024-01-16T07:34:58.366Z,29.05
2024-01-16T07:35:58.424Z,29.02
2024-01-16T07:36:58.337Z,28.96
2024-01-16T07:37:58.344Z,28.91
2024-01-16T07:38:58.348Z,28.88
2024-01-16T07:39:58.685Z,28.79
2024-01-16T07:40:58.332Z,28.79
2024-01-16T07:41:58.359Z,28.76
2024-01-16T07:42:58.328Z,28.69
2024-01-16T07:43:58.367Z,28.63
2024-01-16T07:44:58.359Z,28.58
2024-01-16T07:45:58.293Z,28.55
2024-01-16T07:46:58.297Z,28.48
2024-01-16T07:47:58.358Z,28.40
2024-01-16T07:48:58.320Z,28.35
2024-01-16T07:49:58.298Z,28.35
2024-01-16T07:50:58.391Z,28.37
2024-01-16T07:51:58.274Z,28.33
2024-01-16T07:52:58.306Z,28.28
2024-01-16T07:53:58.384Z,28.26
2024-01-16T07:54:58.353Z,28.30
2024-01-16T07:55:58.394Z,28.26
2024-01-16T07:56:58.652Z,28.15
2024-01-16T07:57:58.455Z,28.17
2024-01-16T07:58:58.474Z,28.15
2024-01-16T07:59:58.532Z,28.14
2024-01-16T08:00:58.584Z,28.13
2024-01-16T08:01:58.598Z,28.11
2024-01-16T08:02:58.632Z,28.07
2024-01-16T08:03:58.700Z,28.08
2024-01-16T08:04:58.713Z,28.07
2024-01-16T08:05:58.806Z,28.06
2024-01-16T08:06:58.828Z,28.04
2024-01-16T08:07:58.734Z,28.04
2024-01-16T08:08:58.836Z,28.01
2024-01-16T08:09:58.783Z,27.98
2024-01-16T08:10:58.806Z,27.96
2024-01-16T08:11:58.915Z,27.96
2024-01-16T08:12:58.851Z,27.93
2024-01-16T08:13:58.901Z,27.93
2024-01-16T08:14:58.973Z,27.87
2024-01-16T08:15:58.954Z,27.91
2024-01-16T08:16:58.933Z,27.85
2024-01-16T08:17:59.070Z,27.87
2024-01-16T08:18:58.997Z,27.84
2024-01-16T08:19:58.959Z,27.84
2024-01-16T08:20:59.002Z,27.79
2024-01-16T08:21:58.987Z,27.77
2024-01-16T08:22:58.951Z,27.78
2024-01-16T08:23:59.001Z,27.78
2024-01-16T08:24:58.967Z,27.76
2024-01-16T08:25:58.970Z,27.73
2024-01-16T08:26:59.024Z,27.71
2024-01-16T08:27:58.964Z,27.68
2024-01-16T08:28:58.965Z,27.69
2024-01-16T08:29:59.081Z,27.64
2024-01-16T08:30:59.042Z,27.64
2024-01-16T08:31:58.986Z,27.61
2024-01-16T08:32:59.028Z,27.63
2024-01-16T08:33:59.232Z,27.60
2024-01-16T08:34:59.058Z,27.58
2024-01-16T08:35:59.067Z,27.55
2024-01-16T08:36:59.019Z,27.49
2024-01-16T08:37:59.096Z,27.85
2024-01-16T08:38:59.115Z,28.18
2024-01-16T08:39:59.098Z,28.26
2024-01-16T08:40:59.064Z,28.52
2024-01-16T08:41:59.187Z,28.75
2024-01-16T08:42:59.052Z,28.80
2024-01-16T08:43:59.020Z,28.84
2024-01-16T08:44:59.085Z,28.97
2024-01-16T08:45:59.065Z,29.13
2024-01-16T08:46:59.021Z,29.13
2024-01-16T08:47:59.109Z,29.16
2024-01-16T08:48:59.047Z,29.29
2024-01-16T08:49:59.021Z,29.41
2024-01-16T08:50:58.999Z,29.59
2024-01-16T08:51:58.953Z,29.66
2024-01-16T08:52:59.124Z,29.70
2024-01-16T08:53:59.083Z,29.88
2024-01-16T08:54:58.955Z,29.94
2024-01-16T08:55:59.096Z,30.17
2024-01-16T08:56:58.946Z,30.02
2024-01-16T08:57:58.957Z,30.07
2024-01-16T08:58:59.021Z,30.19
2024-01-16T08:59:58.928Z,30.24
2024-01-16T09:00:58.909Z,30.42
2024-01-16T09:01:58.946Z,30.50
2024-01-16T09:02:59.841Z,30.58
2024-01-16T09:03:58.913Z,30.72
2024-01-16T09:04:58.948Z,30.95
2024-01-16T09:05:59.053Z,31.05
2024-01-16T09:06:59.225Z,31.17
2024-01-16T09:07:58.844Z,31.34
2024-01-16T09:08:58.856Z,31.29
2024-01-16T09:09:58.830Z,31.35
2024-01-16T09:10:58.826Z,31.47
2024-01-16T09:11:58.844Z,31.48
2024-01-16T09:12:58.826Z,31.52
2024-01-16T09:14:00.015Z,31.60
2024-01-16T09:14:58.898Z,31.66
2024-01-16T09:15:58.971Z,31.73
2024-01-16T09:16:58.857Z,31.74
2024-01-16T09:17:58.990Z,31.93
2024-01-16T09:18:58.936Z,31.90
2024-01-16T09:19:58.834Z,32.05
2024-01-16T09:20:58.944Z,31.98
2024-01-16T09:21:58.810Z,32.02
2024-01-16T09:22:58.815Z,32.04
2024-01-16T09:23:58.840Z,32.05
2024-01-16T09:24:58.768Z,32.02
2024-01-16T09:25:58.767Z,32.17
2024-01-16T09:26:58.800Z,32.23
2024-01-16T09:27:58.741Z,32.25
2024-01-16T09:28:58.930Z,32.43
2024-01-16T09:29:58.771Z,32.74
2024-01-16T09:30:58.857Z,32.84
2024-01-16T09:31:58.670Z,32.63
2024-01-16T09:32:58.773Z,32.33
2024-01-16T09:33:58.756Z,32.10
2024-01-16T09:34:58.702Z,32.22
2024-01-16T09:35:58.673Z,32.12
2024-01-16T09:36:58.701Z,32.02
2024-01-16T09:37:58.606Z,31.86
2024-01-16T09:38:58.697Z,31.57
2024-01-16T09:39:58.607Z,31.30
2024-01-16T09:40:58.584Z,31.13
2024-01-16T09:41:58.584Z,31.07
2024-01-16T09:42:58.519Z,31.04
2024-01-16T09:43:58.537Z,30.85
2024-01-16T09:44:58.563Z,30.85
2024-01-16T09:46:01.037Z,30.67
2024-01-16T09:46:58.490Z,28.79
2024-01-16T09:47:58.678Z,28.02
2024-01-16T09:48:58.539Z,27.79
2024-01-16T09:49:58.464Z,27.94
2024-01-16T09:50:58.457Z,28.27
2024-01-16T09:51:58.429Z,28.25
2024-01-16T09:53:00.147Z,28.46
2024-01-16T09:53:58.482Z,28.60
2024-01-16T09:54:58.431Z,28.69
2024-01-16T09:55:58.428Z,28.59
2024-01-16T09:56:58.452Z,28.61
2024-01-16T09:57:58.386Z,28.58
2024-01-16T09:58:58.370Z,28.52
2024-01-16T09:59:58.436Z,28.53
2024-01-16T10:00:58.366Z,28.55
2024-01-16T10:01:58.321Z,28.56
2024-01-16T10:02:58.456Z,28.49
2024-01-16T10:03:58.400Z,28.55
2024-01-16T10:04:58.308Z,28.64
2024-01-16T10:05:58.364Z,28.70
2024-01-16T10:06:58.333Z,28.69
2024-01-16T10:07:58.256Z,28.66
2024-01-16T10:08:58.351Z,28.60
2024-01-16T10:09:58.250Z,28.54
2024-01-16T10:10:58.234Z,28.53
2024-01-16T10:11:58.281Z,28.53
2024-01-16T10:12:58.203Z,28.50
2024-01-16T10:13:58.175Z,28.47
2024-01-16T10:14:58.310Z,28.46
2024-01-16T10:15:58.187Z,28.41
2024-01-16T10:16:58.147Z,28.47
2024-01-16T10:17:58.153Z,28.44
2024-01-16T10:18:58.217Z,28.41
2024-01-16T10:19:58.121Z,28.41
2024-01-16T10:20:58.194Z,28.43
2024-01-16T10:21:58.077Z,28.40
2024-01-16T10:22:58.141Z,28.40
2024-01-16T10:23:58.118Z,28.43
2024-01-16T10:24:58.103Z,28.35
2024-01-16T10:25:58.121Z,28.37
2024-01-16T10:26:58.284Z,28.34
2024-01-16T10:27:58.170Z,28.24
2024-01-16T10:28:58.136Z,28.20
2024-01-16T10:29:58.479Z,28.12
2024-01-16T10:30:58.214Z,28.15
2024-01-16T10:31:58.155Z,28.22
2024-01-16T10:32:58.244Z,28.23
2024-01-16T10:33:58.200Z,28.18
2024-01-16T10:34:58.384Z,28.07
2024-01-16T10:35:58.107Z,28.01
2024-01-16T10:36:58.059Z,28.04
2024-01-16T10:37:57.976Z,28.05
2024-01-16T10:38:57.985Z,28.06
2024-01-16T10:39:57.960Z,28.05
2024-01-16T10:40:57.906Z,28.03
2024-01-16T10:41:57.896Z,28.03
2024-01-16T10:42:57.900Z,27.90
2024-01-16T10:43:57.866Z,27.56
2024-01-16T10:44:57.878Z,26.82
2024-01-16T10:45:57.929Z,27.05
2024-01-16T10:46:57.823Z,27.38
2024-01-16T10:47:57.899Z,27.49
2024-01-16T10:48:57.834Z,27.54
2024-01-16T10:49:57.813Z,27.59
2024-01-16T10:50:57.845Z,26.93
2024-01-16T10:51:57.781Z,26.40
2024-01-16T10:52:57.782Z,26.31
2024-01-16T10:53:57.774Z,26.07
2024-01-16T10:54:57.759Z,25.92
2024-01-16T10:55:58.764Z,25.92
2024-01-16T10:56:57.770Z,25.84
2024-01-16T10:57:57.757Z,26.05
2024-01-16T10:58:57.800Z,25.97
2024-01-16T10:59:57.835Z,25.96
2024-01-16T11:00:57.783Z,25.84
2024-01-16T11:01:57.686Z,25.77
2024-01-16T11:02:57.727Z,25.53
2024-01-16T11:03:57.751Z,24.98
2024-01-16T11:04:57.688Z,25.21
2024-01-16T11:05:57.738Z,25.10
2024-01-16T11:06:57.749Z,25.06
2024-01-16T11:07:57.752Z,25.00
2024-01-16T11:08:57.830Z,24.69
2024-01-16T11:09:57.773Z,25.22
2024-01-16T11:10:57.726Z,24.97
2024-01-16T11:11:57.796Z,24.87
2024-01-16T11:12:57.699Z,24.47
2024-01-16T11:13:57.701Z,24.57
2024-01-16T11:14:57.691Z,24.70
2024-01-16T11:15:57.666Z,24.72
2024-01-16T11:16:57.725Z,24.73
2024-01-16T11:17:57.715Z,24.82
2024-01-16T11:19:13.487Z,25.02
2024-01-16T11:20:10.453Z,25.26
2024-01-16T11:21:05.890Z,25.57
2024-01-16T11:21:58.677Z,25.91
2024-01-16T11:22:57.573Z,26.10
2024-01-16T11:23:57.603Z,26.17
2024-01-16T11:24:57.567Z,26.21
2024-01-16T11:25:57.523Z,26.25
2024-01-16T11:26:57.580Z,26.26
2024-01-16T11:27:57.506Z,26.24
2024-01-16T11:28:57.772Z,26.16
2024-01-16T11:29:57.578Z,26.06
2024-01-16T11:30:57.526Z,25.95
2024-01-16T11:32:11.996Z,25.83
2024-01-16T11:32:58.496Z,25.77
2024-01-16T11:33:57.573Z,25.73
2024-01-16T11:34:57.570Z,25.70
2024-01-16T11:35:57.475Z,25.67
2024-01-16T11:36:57.740Z,25.60
2024-01-16T11:37:57.409Z,25.63
2024-01-16T11:38:57.496Z,25.68
2024-01-16T11:39:57.497Z,25.70
2024-01-16T11:40:57.369Z,25.69
2024-01-16T11:41:57.561Z,25.75
2024-01-16T11:42:57.448Z,26.07
2024-01-16T11:43:57.335Z,26.18
2024-01-16T11:44:57.351Z,26.22
2024-01-16T11:45:57.305Z,26.25
2024-01-16T11:46:57.276Z,26.35
2024-01-16T11:47:57.342Z,26.44
2024-01-16T11:48:57.335Z,26.53
2024-01-16T11:49:57.251Z,26.57
2024-01-16T11:50:57.271Z,26.69
2024-01-16T11:51:57.230Z,26.74
2024-01-16T11:52:57.210Z,26.82
2024-01-16T11:53:57.286Z,26.94
2024-01-16T11:54:57.212Z,27.01
2024-01-16T11:55:57.229Z,27.02
2024-01-16T11:56:57.203Z,27.15
2024-01-16T11:57:57.151Z,27.26
2024-01-16T11:58:57.154Z,27.40
2024-01-16T11:59:57.176Z,27.40
2024-01-16T12:00:57.158Z,27.48
2024-01-16T12:01:57.117Z,27.52
2024-01-16T12:02:57.082Z,27.60
2024-01-16T12:03:57.037Z,27.66
2024-01-16T12:04:57.035Z,27.76
2024-01-16T12:05:57.133Z,27.93
2024-01-16T12:06:57.206Z,28.01
2024-01-16T12:07:57.032Z,27.95
2024-01-16T12:08:57.084Z,28.02
2024-01-16T12:09:56.943Z,28.15
2024-01-16T12:10:56.900Z,28.15
2024-01-16T12:11:56.944Z,28.40
2024-01-16T12:12:57.042Z,28.48
2024-01-16T12:13:56.872Z,28.52
2024-01-16T12:14:57.025Z,28.53
2024-01-16T12:15:56.875Z,28.59
2024-01-16T12:16:56.835Z,28.69
2024-01-16T12:17:57.008Z,28.67
2024-01-16T12:18:56.901Z,28.83
2024-01-16T12:19:56.868Z,28.92
2024-01-16T12:20:56.760Z,28.92
2024-01-16T12:21:56.757Z,29.05
2024-01-16T12:22:56.796Z,29.16
2024-01-16T12:24:08.158Z,29.26
2024-01-16T12:24:57.685Z,29.47
2024-01-16T12:26:02.127Z,29.42
2024-01-16T12:26:57.695Z,29.39
2024-01-16T12:27:56.622Z,29.44
2024-01-16T12:28:59.731Z,29.49
2024-01-16T12:29:56.670Z,30.13
2024-01-16T12:30:56.589Z,30.25
2024-01-16T12:31:56.558Z,28.39
2024-01-16T12:33:05.293Z,27.63
2024-01-16T12:34:02.049Z,27.30
2024-01-16T12:34:56.540Z,27.05
2024-01-16T12:35:56.525Z,26.84
2024-01-16T12:36:56.473Z,26.55
2024-01-16T12:37:56.440Z,26.32
2024-01-16T12:38:56.485Z,26.11
2024-01-16T12:39:56.418Z,26.80
2024-01-16T12:40:56.419Z,26.47
2024-01-16T12:41:56.424Z,26.39
2024-01-16T12:42:56.386Z,26.44
2024-01-16T12:44:04.488Z,26.40
2024-01-16T12:44:57.471Z,26.38
2024-01-16T12:45:56.364Z,26.33
2024-01-16T12:46:56.499Z,26.30
2024-01-16T12:47:56.409Z,26.28
2024-01-16T12:49:03.498Z,26.28
2024-01-16T12:49:57.348Z,26.20
2024-01-16T12:50:56.344Z,26.16
2024-01-16T12:51:56.301Z,26.15
2024-01-16T12:52:56.263Z,26.05